This is the latest recevied weather packets stored in our database for station/object DF9PM-13. If no packets are shown the sender has not sent any weather packets the latest 10 day(s).
| Time | Temp. | Humidity | Pressure | Rain* | Wind** | Luminosity | Snow |
|---|---|---|---|---|---|---|---|
| 1777705798 | 18.89° C | 41% | 1021.9 hPa | - | - | - | - |
| 1777705498 | 18.89° C | 43% | 1021.9 hPa | - | - | - | - |
| 1777705197 | 18.33° C | 45% | 1021.9 hPa | - | - | - | - |
| 1777704898 | 17.78° C | 45% | 1021.9 hPa | - | - | - | - |
| 1777704597 | 17.78° C | 46% | 1022 hPa | - | - | - | - |
| 1777704297 | 17.22° C | 47% | 1022.1 hPa | - | - | - | - |
| 1777703997 | 17.22° C | 47% | 1022.1 hPa | - | - | - | - |
| 1777703697 | 17.22° C | 50% | 1022.1 hPa | - | - | - | - |
| 1777703397 | 17.22° C | 53% | 1022.1 hPa | - | - | - | - |
| 1777703097 | 15° C | 61% | 1022.1 hPa | - | - | - | - |
| 1777702797 | 14.44° C | 67% | 1022 hPa | - | - | - | - |
| 1777702497 | 13.33° C | 75% | 1022 hPa | - | - | - | - |
| 1777702197 | 12.78° C | 77% | 1022 hPa | - | - | - | - |
| 1777701897 | 12.22° C | 83% | 1022 hPa | - | - | - | - |
| 1777701597 | 11.67° C | 86% | 1022.1 hPa | - | - | - | - |
| 1777701297 | 11.67° C | 87% | 1022.1 hPa | - | - | - | - |
| 1777700997 | 11.11° C | 94% | 1022.1 hPa | - | - | - | - |
| 1777700697 | 11.11° C | 91% | 1022.1 hPa | - | - | - | - |
| 1777700396 | 10.56° C | 94% | 1022.1 hPa | - | - | - | - |
| 1777700096 | 10.56° C | 98% | 1022 hPa | - | - | - | - |
| 1777699796 | 10° C | 97% | 1022 hPa | - | - | - | - |
| 1777699496 | 10° C | 10% | - | - | - | - | - |
| 1777699196 | 10° C | 10% | - | - | - | - | - |
| 1777698896 | 10° C | 10% | - | - | - | - | - |
| 1777698596 | 9.44° C | 10% | - | - | - | - | - |
* Rain since midnight (hover to see other rain measurements)
** Current wind speed in m/s (hover to see current wind gust speed)